createdAt,value
2023-03-29T00:02:07.680Z,1.95
2023-03-29T00:04:35.724Z,2.50
2023-03-29T00:07:04.908Z,2.30
2023-03-29T00:09:33.598Z,2.33
2023-03-29T00:12:01.757Z,2.40
2023-03-29T00:14:31.103Z,2.40
2023-03-29T00:16:58.901Z,1.70
2023-03-29T00:19:26.469Z,2.65
2023-03-29T00:21:53.666Z,1.70
2023-03-29T00:24:21.555Z,2.00
2023-03-29T00:26:48.793Z,2.65
2023-03-29T00:29:16.165Z,1.52
2023-03-29T00:31:46.172Z,1.90
2023-03-29T00:34:13.499Z,2.53
2023-03-29T00:36:40.684Z,2.40
2023-03-29T00:39:07.723Z,2.38
2023-03-29T00:41:34.869Z,2.65
2023-03-29T00:44:04.390Z,2.05
2023-03-29T00:46:32.574Z,2.42
2023-03-29T00:49:07.355Z,2.67
2023-03-29T00:51:38.533Z,1.90
2023-03-29T00:56:38.830Z,2.70
2023-03-29T00:59:11.005Z,2.58
2023-03-29T01:01:58.081Z,2.63
2023-03-29T01:04:45.677Z,3.08
2023-03-29T01:07:21.584Z,2.60
2023-03-29T01:09:55.669Z,3.17
2023-03-29T01:12:33.038Z,2.90
2023-03-29T01:15:06.323Z,3.53
2023-03-29T01:17:33.446Z,3.20
2023-03-29T01:20:10.930Z,3.40
2023-03-29T01:23:02.523Z,3.47
2023-03-29T01:26:17.029Z,2.65
2023-03-29T01:28:59.811Z,3.25
2023-03-29T01:31:44.053Z,2.40
2023-03-29T01:34:18.319Z,2.15
2023-03-29T01:36:54.933Z,2.83
2023-03-29T01:39:22.263Z,1.95
2023-03-29T01:42:14.599Z,2.60
2023-03-29T01:44:56.626Z,2.10
2023-03-29T01:47:36.401Z,3.10
2023-03-29T01:50:13.273Z,2.70
2023-03-29T01:52:47.702Z,4.50
2023-03-29T01:55:33.697Z,4.53
2023-03-29T01:58:03.238Z,3.80
2023-03-29T02:00:32.295Z,4.88
2023-03-29T02:03:03.444Z,4.63
2023-03-29T02:08:03.168Z,5.70
2023-03-29T02:10:30.982Z,5.93
2023-03-29T02:12:58.732Z,5.97
2023-03-29T02:15:25.938Z,5.10
2023-03-29T02:17:53.119Z,5.40
2023-03-29T02:20:32.371Z,4.70
2023-03-29T02:23:09.257Z,4.45
2023-03-29T02:25:38.073Z,2.65
2023-03-29T02:28:07.089Z,3.05
2023-03-29T02:30:47.430Z,2.55
2023-03-29T02:33:22.019Z,2.65
2023-03-29T02:35:56.979Z,2.65
2023-03-29T02:38:25.818Z,2.33
2023-03-29T02:40:53.199Z,2.80
2023-03-29T02:43:22.625Z,2.60
2023-03-29T02:45:52.446Z,2.80
2023-03-29T02:48:23.716Z,2.60
2023-03-29T02:50:56.412Z,3.15
2023-03-29T02:53:29.975Z,2.90
2023-03-29T02:55:57.047Z,2.58
2023-03-29T02:58:27.086Z,3.08
2023-03-29T03:00:56.052Z,2.38
2023-03-29T03:03:23.342Z,2.70
2023-03-29T03:05:52.657Z,3.70
2023-03-29T03:08:19.982Z,4.85
2023-03-29T03:10:47.882Z,5.40
2023-03-29T03:13:14.871Z,5.55
2023-03-29T03:15:43.137Z,5.72
2023-03-29T03:18:10.979Z,4.82
2023-03-29T03:20:38.092Z,5.13
2023-03-29T03:23:05.101Z,5.32
2023-03-29T03:25:32.497Z,3.67
2023-03-29T03:27:59.704Z,3.75
2023-03-29T03:30:27.402Z,4.00
2023-03-29T03:32:57.794Z,4.10
2023-03-29T03:35:25.340Z,4.20
2023-03-29T03:37:52.328Z,3.42
2023-03-29T03:40:19.195Z,4.35
2023-03-29T03:42:46.203Z,4.05
2023-03-29T03:45:13.278Z,4.10
2023-03-29T03:47:41.212Z,3.67
2023-03-29T03:50:09.317Z,4.10
2023-03-29T03:52:36.556Z,3.08
2023-03-29T03:55:03.591Z,3.53
2023-03-29T03:57:33.173Z,3.08
2023-03-29T04:00:00.298Z,2.60
2023-03-29T04:02:27.713Z,2.78
2023-03-29T04:04:55.018Z,2.72
2023-03-29T04:07:22.078Z,3.33
2023-03-29T04:09:49.229Z,2.60
2023-03-29T04:12:16.419Z,3.70
2023-03-29T04:14:43.647Z,2.30
2023-03-29T04:17:10.767Z,2.92
2023-03-29T04:19:43.107Z,2.15
2023-03-29T04:22:10.237Z,2.45
2023-03-29T04:24:37.157Z,2.95
2023-03-29T04:27:04.242Z,2.58
2023-03-29T04:29:31.692Z,3.05
2023-03-29T04:31:58.682Z,2.10
2023-03-29T04:34:25.884Z,3.15
2023-03-29T04:36:53.060Z,2.60
2023-03-29T04:39:20.077Z,2.60
2023-03-29T04:41:50.573Z,2.58
2023-03-29T04:44:17.718Z,2.88
2023-03-29T04:46:44.841Z,2.88
2023-03-29T04:49:11.895Z,3.05
2023-03-29T04:51:39.334Z,3.75
2023-03-29T04:54:06.745Z,2.53
2023-03-29T04:56:33.739Z,2.58
2023-03-29T04:59:00.750Z,1.98
2023-03-29T05:01:27.719Z,3.20
2023-03-29T05:03:54.856Z,3.05
2023-03-29T05:06:22.029Z,2.85
2023-03-29T05:08:49.090Z,2.35
2023-03-29T05:11:16.763Z,2.88
2023-03-29T05:13:43.810Z,3.20
2023-03-29T05:16:11.393Z,3.05
2023-03-29T05:18:38.502Z,3.70
2023-03-29T05:21:06.631Z,3.20
2023-03-29T05:23:34.518Z,2.88
2023-03-29T05:26:01.584Z,3.65
2023-03-29T05:28:28.709Z,3.28
2023-03-29T05:31:04.737Z,2.55
2023-03-29T05:33:32.379Z,4.25
2023-03-29T05:36:08.916Z,3.72
2023-03-29T05:38:36.017Z,2.97
2023-03-29T05:41:03.435Z,3.33
2023-03-29T05:43:31.075Z,4.10
2023-03-29T05:45:58.274Z,4.47
2023-03-29T05:48:26.274Z,3.75
2023-03-29T05:50:55.541Z,4.68
2023-03-29T05:53:24.416Z,4.55
2023-03-29T05:55:51.974Z,3.55
2023-03-29T05:58:21.814Z,4.60
2023-03-29T06:00:50.111Z,3.15
2023-03-29T06:03:21.111Z,4.07
2023-03-29T06:05:55.222Z,3.22
2023-03-29T06:08:22.517Z,5.80
2023-03-29T06:10:50.502Z,2.85
2023-03-29T06:13:17.702Z,2.85
2023-03-29T06:15:45.245Z,3.53
2023-03-29T06:18:12.658Z,4.18
2023-03-29T06:20:39.750Z,3.95
2023-03-29T06:23:08.192Z,3.47
2023-03-29T06:25:35.564Z,3.20
2023-03-29T06:28:02.901Z,3.58
2023-03-29T06:30:29.879Z,3.50
2023-03-29T06:32:59.805Z,3.90
2023-03-29T06:35:27.367Z,3.28
2023-03-29T06:37:54.608Z,3.03
2023-03-29T06:40:23.056Z,3.30
2023-03-29T06:42:51.366Z,2.67
2023-03-29T06:45:19.684Z,3.28
2023-03-29T06:47:47.581Z,3.42
2023-03-29T06:50:14.890Z,4.43
2023-03-29T06:52:42.012Z,3.50
2023-03-29T06:55:10.078Z,3.70
2023-03-29T06:57:37.630Z,3.17
2023-03-29T07:00:15.541Z,3.50
2023-03-29T07:02:42.829Z,3.67
2023-03-29T07:05:13.694Z,3.17
2023-03-29T07:08:00.504Z,3.45
2023-03-29T07:10:32.876Z,3.70
2023-03-29T07:13:02.225Z,2.92
2023-03-29T07:15:29.584Z,4.15
2023-03-29T07:17:57.700Z,2.90
2023-03-29T07:20:27.320Z,3.20
2023-03-29T07:22:57.678Z,2.40
2023-03-29T07:25:26.128Z,2.75
2023-03-29T07:27:54.009Z,2.85
2023-03-29T07:30:24.061Z,2.90
2023-03-29T07:32:52.594Z,2.70
2023-03-29T07:35:20.192Z,3.05
2023-03-29T07:37:47.707Z,3.03
2023-03-29T07:40:23.845Z,3.75
2023-03-29T07:42:54.359Z,3.35
2023-03-29T07:45:26.625Z,2.88
2023-03-29T07:47:57.522Z,3.55
2023-03-29T07:50:26.009Z,3.47
2023-03-29T07:52:53.528Z,4.00
2023-03-29T07:55:20.831Z,3.42
2023-03-29T07:57:49.600Z,3.15
2023-03-29T08:00:17.708Z,2.95
2023-03-29T08:02:46.876Z,2.50
2023-03-29T08:05:18.960Z,2.95
2023-03-29T08:07:50.935Z,3.65
2023-03-29T08:10:22.514Z,3.15
2023-03-29T08:12:50.554Z,2.70
2023-03-29T08:15:17.875Z,2.33
2023-03-29T08:17:47.025Z,3.20
2023-03-29T08:20:18.561Z,3.58
2023-03-29T08:22:45.702Z,2.78
2023-03-29T08:25:13.052Z,2.20
2023-03-29T08:27:40.344Z,2.80
2023-03-29T08:30:09.658Z,2.65
2023-03-29T08:32:37.733Z,2.85
2023-03-29T08:35:06.843Z,2.88
2023-03-29T08:37:34.107Z,2.53
2023-03-29T08:40:01.981Z,2.72
2023-03-29T08:43:06.362Z,3.20
2023-03-29T08:45:53.572Z,3.10
2023-03-29T08:48:37.953Z,4.10
2023-03-29T08:51:28.464Z,3.97
2023-03-29T08:54:02.471Z,3.65
2023-03-29T08:56:34.255Z,3.55
2023-03-29T08:59:01.771Z,2.92
2023-03-29T09:01:34.401Z,3.00
2023-03-29T09:04:10.184Z,3.13
2023-03-29T09:06:40.172Z,3.30
2023-03-29T09:09:15.945Z,3.75
2023-03-29T09:12:02.067Z,3.17
2023-03-29T09:14:57.844Z,3.22
2023-03-29T09:17:49.681Z,3.78
2023-03-29T09:20:51.793Z,3.45
2023-03-29T09:23:30.848Z,3.60
2023-03-29T09:26:28.575Z,3.80
2023-03-29T09:28:55.565Z,3.60
2023-03-29T09:31:28.689Z,4.13
2023-03-29T09:34:01.936Z,4.00
2023-03-29T09:36:47.573Z,3.70
2023-03-29T09:39:16.504Z,3.33
2023-03-29T09:41:52.906Z,3.72
2023-03-29T09:44:30.864Z,2.78
2023-03-29T09:47:06.516Z,3.65
2023-03-29T09:49:38.447Z,3.97
2023-03-29T09:52:11.703Z,4.82
2023-03-29T09:54:38.946Z,3.88
2023-03-29T09:57:06.112Z,4.45
2023-03-29T09:59:33.123Z,3.50
2023-03-29T10:02:08.683Z,4.65
2023-03-29T10:04:37.035Z,3.58
2023-03-29T10:07:04.921Z,4.13
2023-03-29T10:09:33.187Z,4.18
2023-03-29T10:12:05.212Z,4.13
2023-03-29T10:14:43.764Z,3.83
2023-03-29T10:17:20.190Z,4.68
2023-03-29T10:19:53.244Z,3.63
2023-03-29T10:22:25.810Z,4.90
2023-03-29T10:24:55.306Z,3.38
2023-03-29T10:27:26.259Z,4.03
2023-03-29T10:29:54.741Z,3.03
2023-03-29T10:32:33.749Z,4.72
2023-03-29T10:35:35.130Z,4.60
2023-03-29T10:38:07.944Z,3.20
2023-03-29T10:40:35.958Z,3.03
2023-03-29T10:43:22.742Z,3.97
2023-03-29T10:45:51.972Z,4.57
2023-03-29T10:48:19.583Z,4.60
2023-03-29T10:50:53.199Z,4.20
2023-03-29T10:53:27.819Z,3.22
2023-03-29T10:55:54.836Z,2.90
2023-03-29T10:58:49.767Z,2.85
2023-03-29T11:01:27.423Z,4.75
2023-03-29T11:04:12.459Z,3.45
2023-03-29T11:07:05.703Z,3.30
2023-03-29T11:09:54.394Z,3.92
2023-03-29T11:12:43.363Z,4.43
2023-03-29T11:18:12.460Z,3.38
2023-03-29T11:20:43.338Z,3.35
2023-03-29T11:23:35.080Z,3.42
2023-03-29T11:26:25.346Z,4.63
2023-03-29T11:29:12.002Z,4.38
2023-03-29T11:31:58.258Z,3.65
2023-03-29T11:35:05.190Z,3.85
2023-03-29T11:37:54.126Z,4.72
2023-03-29T11:43:15.452Z,3.50
2023-03-29T11:45:52.759Z,3.20
2023-03-29T11:48:26.192Z,3.67
2023-03-29T11:51:10.896Z,2.95
2023-03-29T11:53:46.695Z,3.40
2023-03-29T11:56:19.741Z,4.80
2023-03-29T11:58:53.933Z,3.85
2023-03-29T12:01:45.276Z,3.53
2023-03-29T12:04:26.812Z,2.78
2023-03-29T12:07:06.441Z,2.55
2023-03-29T12:09:51.308Z,4.55
2023-03-29T12:12:36.831Z,2.63
2023-03-29T12:15:11.014Z,4.95
2023-03-29T12:17:46.714Z,3.15
2023-03-29T12:20:31.941Z,4.25
2023-03-29T12:22:59.337Z,3.60
2023-03-29T12:25:44.666Z,4.03
2023-03-29T12:28:47.474Z,3.42
2023-03-29T12:31:24.669Z,3.58
2023-03-29T12:34:09.256Z,3.60
2023-03-29T12:37:02.116Z,3.03
2023-03-29T12:39:31.592Z,2.88
2023-03-29T12:42:16.383Z,3.20
2023-03-29T12:44:51.702Z,3.00
2023-03-29T12:47:24.806Z,3.17
2023-03-29T12:49:57.558Z,2.75
2023-03-29T12:52:34.175Z,2.70
2023-03-29T12:55:04.658Z,2.60
2023-03-29T12:58:00.543Z,2.85
2023-03-29T13:00:34.253Z,3.00
2023-03-29T13:03:20.047Z,2.97
2023-03-29T13:05:47.330Z,2.33
2023-03-29T13:08:26.334Z,2.92
2023-03-29T13:10:55.928Z,3.08
2023-03-29T13:13:29.796Z,2.88
2023-03-29T13:16:09.802Z,2.90
2023-03-29T13:18:58.625Z,3.38
2023-03-29T13:21:47.172Z,2.78
2023-03-29T13:24:29.126Z,3.10
2023-03-29T13:27:25.313Z,3.85
2023-03-29T13:30:15.709Z,3.95
2023-03-29T13:33:08.859Z,2.72
2023-03-29T13:35:46.218Z,3.13
2023-03-29T13:38:21.489Z,2.75
2023-03-29T13:41:07.441Z,3.08
2023-03-29T13:43:54.714Z,3.45
2023-03-29T13:46:41.100Z,2.53
2023-03-29T13:49:28.561Z,2.70
2023-03-29T13:52:12.696Z,2.80
2023-03-29T13:54:58.320Z,2.33
2023-03-29T13:57:38.589Z,2.47
2023-03-29T14:00:20.465Z,2.50
2023-03-29T14:02:58.316Z,2.88
2023-03-29T14:05:35.567Z,2.95
2023-03-29T14:08:09.867Z,3.53
2023-03-29T14:10:42.309Z,2.55
2023-03-29T14:13:18.444Z,2.33
2023-03-29T14:16:09.347Z,3.25
2023-03-29T14:18:44.810Z,2.17
2023-03-29T14:21:14.261Z,2.72
2023-03-29T14:23:44.973Z,4.03
2023-03-29T14:26:14.758Z,4.18
2023-03-29T14:28:50.724Z,3.33
2023-03-29T14:31:18.810Z,2.97
2023-03-29T14:33:46.181Z,2.60
2023-03-29T14:36:18.081Z,2.95
2023-03-29T14:38:51.381Z,2.63
2023-03-29T14:41:18.419Z,2.40
2023-03-29T14:43:47.486Z,2.85
2023-03-29T14:46:18.176Z,2.90
2023-03-29T14:48:45.894Z,2.17
2023-03-29T14:51:13.115Z,2.45
2023-03-29T14:53:41.859Z,3.22
2023-03-29T14:56:13.666Z,2.33
2023-03-29T14:58:49.195Z,2.67
2023-03-29T15:01:19.285Z,2.60
2023-03-29T15:04:02.270Z,3.45
2023-03-29T15:06:31.032Z,3.63
2023-03-29T15:09:05.235Z,3.13
2023-03-29T15:11:34.547Z,4.28
2023-03-29T15:14:14.559Z,4.82
2023-03-29T15:16:44.219Z,5.25
2023-03-29T15:19:18.802Z,5.43
2023-03-29T15:21:48.670Z,4.38
2023-03-29T15:24:29.711Z,4.80
2023-03-29T15:27:01.599Z,4.60
2023-03-29T15:29:37.302Z,4.63
2023-03-29T15:32:04.579Z,4.88
2023-03-29T15:34:33.510Z,6.03
2023-03-29T15:37:02.113Z,5.25
2023-03-29T15:39:29.742Z,4.88
2023-03-29T15:41:57.905Z,8.80
2023-03-29T15:44:32.332Z,6.63
2023-03-29T15:47:00.106Z,6.45
2023-03-29T15:49:27.379Z,4.60
2023-03-29T15:51:54.562Z,4.95
2023-03-29T15:54:25.002Z,4.38
2023-03-29T15:56:55.649Z,3.20
2023-03-29T15:59:23.545Z,3.47
2023-03-29T16:01:50.996Z,2.97
2023-03-29T16:04:20.138Z,3.50
2023-03-29T16:06:49.545Z,3.20
2023-03-29T16:09:17.336Z,3.38
2023-03-29T16:11:45.759Z,3.30
2023-03-29T16:14:23.246Z,2.83
2023-03-29T16:16:51.647Z,2.60
2023-03-29T16:19:19.563Z,3.35
2023-03-29T16:21:46.645Z,3.10
2023-03-29T16:24:24.892Z,3.35
2023-03-29T16:26:55.495Z,2.80
2023-03-29T16:29:23.820Z,3.20
2023-03-29T16:31:51.495Z,3.03
2023-03-29T16:34:19.426Z,3.13
2023-03-29T16:36:47.977Z,3.55
2023-03-29T16:39:16.298Z,2.88
2023-03-29T16:41:45.367Z,3.20
2023-03-29T16:44:23.814Z,3.03
2023-03-29T16:46:54.113Z,2.92
2023-03-29T16:49:21.820Z,2.47
2023-03-29T16:51:48.851Z,2.78
2023-03-29T16:54:20.210Z,3.17
2023-03-29T16:56:47.504Z,2.70
2023-03-29T16:59:15.525Z,2.95
2023-03-29T17:01:42.999Z,2.67
2023-03-29T17:04:10.285Z,3.33
2023-03-29T17:06:37.345Z,3.92
2023-03-29T17:09:05.335Z,3.20
2023-03-29T17:11:32.541Z,6.35
2023-03-29T17:14:00.366Z,5.82
2023-03-29T17:16:29.351Z,7.90
2023-03-29T17:19:00.614Z,8.23
2023-03-29T17:21:29.142Z,7.32
2023-03-29T17:23:56.261Z,6.60
2023-03-29T17:26:23.422Z,5.45
2023-03-29T17:28:50.641Z,4.53
2023-03-29T17:31:19.572Z,3.80
2023-03-29T17:33:47.687Z,3.78
2023-03-29T17:36:14.824Z,3.30
2023-03-29T17:38:43.223Z,4.05
2023-03-29T17:41:10.421Z,3.45
2023-03-29T17:43:37.414Z,3.67
2023-03-29T17:46:04.910Z,2.90
2023-03-29T17:48:33.145Z,3.40
2023-03-29T17:51:00.235Z,3.42
2023-03-29T17:53:27.589Z,2.42
2023-03-29T17:55:54.744Z,3.60
2023-03-29T17:58:21.870Z,3.28
2023-03-29T18:00:49.051Z,3.65
2023-03-29T18:03:19.034Z,2.17
2023-03-29T18:05:46.296Z,2.50
2023-03-29T18:08:15.139Z,3.45
2023-03-29T18:10:42.471Z,3.67
2023-03-29T18:13:13.981Z,3.85
2023-03-29T18:15:41.186Z,3.75
2023-03-29T18:18:08.728Z,2.45
2023-03-29T18:20:35.813Z,3.42
2023-03-29T18:23:03.033Z,3.42
2023-03-29T18:25:30.219Z,4.03
2023-03-29T18:27:57.319Z,3.25
2023-03-29T18:30:27.980Z,3.25
2023-03-29T18:35:22.756Z,3.25
2023-03-29T18:37:49.829Z,4.15
2023-03-29T18:40:20.523Z,3.70
2023-03-29T18:42:47.435Z,3.75
2023-03-29T18:45:14.431Z,3.40
2023-03-29T18:47:41.419Z,3.78
2023-03-29T18:50:09.916Z,2.65
2023-03-29T18:52:37.941Z,3.70
2023-03-29T18:55:07.379Z,3.85
2023-03-29T18:57:34.463Z,4.30
2023-03-29T19:00:01.503Z,4.18
2023-03-29T19:02:30.585Z,3.40
2023-03-29T19:04:57.724Z,4.60
2023-03-29T19:07:24.678Z,4.60
2023-03-29T19:09:51.901Z,4.25
2023-03-29T19:12:18.864Z,4.70
2023-03-29T19:14:45.923Z,3.40
2023-03-29T19:17:13.036Z,5.97
2023-03-29T19:19:40.062Z,4.93
2023-03-29T19:22:07.108Z,4.20
2023-03-29T19:24:34.050Z,4.05
2023-03-29T19:27:02.005Z,4.38
2023-03-29T19:29:29.180Z,4.10
2023-03-29T19:31:57.360Z,4.35
2023-03-29T19:34:24.858Z,4.35
2023-03-29T19:36:53.728Z,5.13
2023-03-29T19:39:21.297Z,3.22
2023-03-29T19:41:48.803Z,3.65
2023-03-29T19:44:15.934Z,3.80
2023-03-29T19:46:42.891Z,3.63
2023-03-29T19:49:13.787Z,3.13
2023-03-29T19:51:44.478Z,4.18
2023-03-29T19:54:13.495Z,3.53
2023-03-29T19:56:43.074Z,3.05
2023-03-29T19:59:11.346Z,3.42
2023-03-29T20:01:40.854Z,3.92
2023-03-29T20:04:08.012Z,4.00
2023-03-29T20:06:35.268Z,3.67
2023-03-29T20:09:05.150Z,4.00
2023-03-29T20:11:32.195Z,3.75
2023-03-29T20:13:59.149Z,3.25
2023-03-29T20:16:27.311Z,3.63
2023-03-29T20:18:54.368Z,4.05
2023-03-29T20:21:21.432Z,3.10
2023-03-29T20:23:48.404Z,3.45
2023-03-29T20:26:15.549Z,4.10
2023-03-29T20:28:42.775Z,3.63
2023-03-29T20:31:12.449Z,3.97
2023-03-29T20:33:39.969Z,3.70
2023-03-29T20:36:07.337Z,3.72
2023-03-29T20:38:35.923Z,3.92
2023-03-29T20:41:04.594Z,4.22
2023-03-29T20:43:37.616Z,3.58
2023-03-29T20:46:06.027Z,3.40
2023-03-29T20:48:33.104Z,3.65
2023-03-29T20:51:03.360Z,3.55
2023-03-29T20:53:34.409Z,3.90
2023-03-29T20:56:01.339Z,3.85
2023-03-29T20:58:29.231Z,3.47
2023-03-29T21:01:00.318Z,3.17
2023-03-29T21:03:27.344Z,3.70
2023-03-29T21:05:55.315Z,3.67
2023-03-29T21:08:22.302Z,3.83
2023-03-29T21:10:49.260Z,4.00
2023-03-29T21:13:18.392Z,3.63
2023-03-29T21:15:46.655Z,4.10
2023-03-29T21:18:14.314Z,3.60
2023-03-29T21:20:41.583Z,3.75
2023-03-29T21:23:08.503Z,3.80
2023-03-29T21:25:35.606Z,3.95
2023-03-29T21:28:02.640Z,3.65
2023-03-29T21:30:31.920Z,2.95
2023-03-29T21:32:59.300Z,3.28
2023-03-29T21:35:26.329Z,3.38
2023-03-29T21:37:53.349Z,3.38
2023-03-29T21:40:20.388Z,3.70
2023-03-29T21:42:47.301Z,2.88
2023-03-29T21:45:14.345Z,4.03
2023-03-29T21:47:41.465Z,3.63
2023-03-29T21:50:09.653Z,3.30
2023-03-29T21:52:37.963Z,4.03
2023-03-29T21:55:08.704Z,2.97
2023-03-29T21:57:35.744Z,3.53
2023-03-29T22:00:03.841Z,3.65
2023-03-29T22:02:31.232Z,4.03
2023-03-29T22:04:58.265Z,2.83
2023-03-29T22:07:25.294Z,4.22
2023-03-29T22:09:52.294Z,3.50
2023-03-29T22:12:19.212Z,3.72
2023-03-29T22:14:46.338Z,3.45
2023-03-29T22:17:13.739Z,3.78
2023-03-29T22:19:41.914Z,2.72
2023-03-29T22:22:13.898Z,3.50
2023-03-29T22:24:42.347Z,3.92
2023-03-29T22:27:10.663Z,3.03
2023-03-29T22:29:37.766Z,3.60
2023-03-29T22:32:04.999Z,3.30
2023-03-29T22:34:32.588Z,3.10
2023-03-29T22:36:59.581Z,3.33
2023-03-29T22:39:26.984Z,2.95
2023-03-29T22:41:53.943Z,3.03
2023-03-29T22:44:21.113Z,3.00
2023-03-29T22:46:51.314Z,3.42
2023-03-29T22:49:18.272Z,3.70
2023-03-29T22:51:45.650Z,4.20
2023-03-29T22:54:13.147Z,3.35
2023-03-29T22:56:40.886Z,3.38
2023-03-29T22:59:08.068Z,2.83
2023-03-29T23:01:35.114Z,3.78
2023-03-29T23:04:02.203Z,3.25
2023-03-29T23:06:29.258Z,3.03
2023-03-29T23:08:56.328Z,4.13
2023-03-29T23:11:23.394Z,4.10
2023-03-29T23:13:51.248Z,3.83
2023-03-29T23:16:20.966Z,3.30
2023-03-29T23:18:48.365Z,3.45
2023-03-29T23:21:15.533Z,3.72
2023-03-29T23:23:43.548Z,4.22
2023-03-29T23:26:11.269Z,3.67
2023-03-29T23:28:38.470Z,3.53
2023-03-29T23:31:13.567Z,3.50
2023-03-29T23:33:43.013Z,3.15
2023-03-29T23:36:12.524Z,2.72
2023-03-29T23:38:40.234Z,3.38
2023-03-29T23:41:10.564Z,2.78
2023-03-29T23:43:42.992Z,3.33
2023-03-29T23:46:13.359Z,3.30
2023-03-29T23:48:40.469Z,2.78
2023-03-29T23:51:08.379Z,3.05
2023-03-29T23:53:35.543Z,2.75
2023-03-29T23:56:04.554Z,3.00
2023-03-29T23:58:34.377Z,2.85
